createdAt,value
2019-05-19T00:00:53.578Z,984.53
2019-05-19T00:01:53.618Z,984.57
2019-05-19T00:02:53.692Z,984.64
2019-05-19T00:03:53.700Z,984.57
2019-05-19T00:04:53.759Z,984.58
2019-05-19T00:05:53.787Z,984.60
2019-05-19T00:06:53.828Z,984.59
2019-05-19T00:07:53.880Z,984.60
2019-05-19T00:08:53.917Z,984.57
2019-05-19T00:09:53.959Z,984.58
2019-05-19T00:10:53.997Z,984.57
2019-05-19T00:11:54.051Z,984.50
2019-05-19T00:12:54.081Z,984.52
2019-05-19T00:13:54.118Z,984.54
2019-05-19T00:14:54.161Z,984.52
2019-05-19T00:15:54.213Z,984.50
2019-05-19T00:16:54.242Z,984.49
2019-05-19T00:17:54.284Z,984.49
2019-05-19T00:18:54.339Z,984.51
2019-05-19T00:19:54.368Z,984.49
2019-05-19T00:20:54.410Z,984.47
2019-05-19T00:21:54.468Z,984.50
2019-05-19T00:22:54.495Z,984.49
2019-05-19T00:23:54.545Z,984.49
2019-05-19T00:24:54.581Z,984.45
2019-05-19T00:25:54.626Z,984.46
2019-05-19T00:26:54.661Z,984.48
2019-05-19T00:27:54.700Z,984.46
2019-05-19T00:28:54.742Z,984.44
2019-05-19T00:29:54.784Z,984.44
2019-05-19T00:30:54.834Z,984.46
2019-05-19T00:31:54.871Z,984.46
2019-05-19T00:32:54.912Z,984.47
2019-05-19T00:33:54.953Z,984.46
2019-05-19T00:34:55.014Z,984.40
2019-05-19T00:35:55.034Z,984.40
2019-05-19T00:36:55.076Z,984.39
2019-05-19T00:37:55.114Z,984.35
2019-05-19T00:38:55.156Z,984.38
2019-05-19T00:39:55.201Z,984.41
2019-05-19T00:40:55.240Z,984.37
2019-05-19T00:41:55.281Z,984.38
2019-05-19T00:42:55.329Z,984.39
2019-05-19T00:43:55.362Z,984.34
2019-05-19T00:44:55.403Z,984.39
2019-05-19T00:45:55.453Z,984.36
2019-05-19T00:46:55.485Z,984.37
2019-05-19T00:47:55.532Z,984.30
2019-05-19T00:48:55.573Z,984.34
2019-05-19T00:49:55.611Z,984.29
2019-05-19T00:50:55.651Z,984.33
2019-05-19T00:51:55.693Z,984.27
2019-05-19T00:52:55.734Z,984.27
2019-05-19T00:53:55.775Z,984.32
2019-05-19T00:54:55.822Z,984.27
2019-05-19T00:55:55.856Z,984.28
2019-05-19T00:56:55.905Z,984.28
2019-05-19T00:57:55.939Z,984.28
2019-05-19T00:58:55.981Z,984.27
2019-05-19T00:59:56.022Z,984.28
2019-05-19T01:00:56.062Z,984.26
2019-05-19T01:01:56.104Z,984.22
2019-05-19T01:02:56.148Z,984.22
2019-05-19T01:03:56.186Z,984.21
2019-05-19T01:04:56.226Z,984.19
2019-05-19T01:05:56.267Z,984.21
2019-05-19T01:06:56.409Z,984.19
2019-05-19T01:07:56.350Z,984.18
2019-05-19T01:08:56.395Z,984.20
2019-05-19T01:09:56.434Z,984.15
2019-05-19T01:10:56.474Z,984.11
2019-05-19T01:11:56.514Z,984.08
2019-05-19T01:12:56.564Z,984.12
2019-05-19T01:13:56.608Z,984.10
2019-05-19T01:14:56.638Z,984.09
2019-05-19T01:15:56.677Z,984.03
2019-05-19T01:16:56.719Z,984.05
2019-05-19T01:17:56.761Z,984.04
2019-05-19T01:18:56.802Z,984.11
2019-05-19T01:19:56.844Z,984.05
2019-05-19T01:20:56.886Z,984.06
2019-05-19T01:21:56.925Z,984.02
2019-05-19T01:22:56.985Z,984.03
2019-05-19T01:23:57.015Z,984.03
2019-05-19T01:24:57.048Z,984.05
2019-05-19T01:25:57.102Z,984.02
2019-05-19T01:26:57.143Z,984.05
2019-05-19T01:27:57.208Z,984.04
2019-05-19T01:28:57.219Z,984.03
2019-05-19T01:29:57.254Z,984.04
2019-05-19T01:30:57.295Z,984.04
2019-05-19T01:31:57.336Z,984.03
2019-05-19T01:32:57.381Z,983.98
2019-05-19T01:33:57.445Z,984.00
2019-05-19T01:34:57.459Z,983.98
2019-05-19T01:35:57.501Z,983.98
2019-05-19T01:36:57.541Z,983.98
2019-05-19T01:37:57.663Z,983.96
2019-05-19T01:38:57.637Z,983.97
2019-05-19T01:39:57.662Z,983.97
2019-05-19T01:40:57.702Z,984.00
2019-05-19T01:41:57.742Z,983.97
2019-05-19T01:42:57.791Z,983.99
2019-05-19T01:43:57.822Z,983.99
2019-05-19T01:44:57.870Z,983.96
2019-05-19T01:45:57.912Z,983.95
2019-05-19T01:46:57.952Z,983.92
2019-05-19T01:47:57.987Z,983.92
2019-05-19T01:48:58.039Z,983.93
2019-05-19T01:50:16.527Z,983.93
2019-05-19T01:50:58.114Z,983.94
2019-05-19T01:51:58.150Z,983.93
2019-05-19T01:52:58.191Z,983.91
2019-05-19T01:53:58.231Z,983.90
2019-05-19T01:54:58.275Z,983.92
2019-05-19T01:55:58.314Z,983.86
2019-05-19T01:56:58.356Z,983.87
2019-05-19T01:57:58.402Z,983.88
2019-05-19T01:58:58.437Z,983.89
2019-05-19T01:59:58.477Z,983.88
2019-05-19T02:00:58.529Z,983.85
2019-05-19T02:01:58.558Z,983.83
2019-05-19T02:02:58.602Z,983.81
2019-05-19T02:03:58.638Z,983.82
2019-05-19T02:04:58.701Z,983.79
2019-05-19T02:05:58.724Z,983.75
2019-05-19T02:06:58.763Z,983.76
2019-05-19T02:07:58.903Z,983.77
2019-05-19T02:08:58.846Z,983.77
2019-05-19T02:09:58.885Z,983.73
2019-05-19T02:10:58.925Z,983.74
2019-05-19T02:11:58.964Z,983.76
2019-05-19T02:12:59.007Z,983.74
2019-05-19T02:13:59.046Z,983.72
2019-05-19T02:14:59.090Z,983.75
2019-05-19T02:15:59.134Z,983.72
2019-05-19T02:16:59.169Z,983.74
2019-05-19T02:17:59.209Z,983.72
2019-05-19T02:18:59.250Z,983.71
2019-05-19T02:19:59.290Z,983.73
2019-05-19T02:20:59.331Z,983.73
2019-05-19T02:21:59.372Z,983.76
2019-05-19T02:22:59.415Z,983.73
2019-05-19T02:23:59.560Z,983.77
2019-05-19T02:24:59.493Z,983.75
2019-05-19T02:25:59.542Z,983.78
2019-05-19T02:26:59.580Z,983.76
2019-05-19T02:27:59.623Z,983.74
2019-05-19T02:28:59.656Z,983.75
2019-05-19T02:29:59.696Z,983.79
2019-05-19T02:30:59.738Z,983.75
2019-05-19T02:31:59.785Z,983.76
2019-05-19T02:32:59.820Z,983.78
2019-05-19T02:33:59.861Z,983.72
2019-05-19T02:34:59.902Z,983.76
2019-05-19T02:35:59.938Z,983.72
2019-05-19T02:36:59.982Z,983.74
2019-05-19T02:38:00.027Z,983.69
2019-05-19T02:39:00.076Z,983.74
2019-05-19T02:40:00.107Z,983.73
2019-05-19T02:41:00.158Z,983.73
2019-05-19T02:42:00.187Z,983.76
2019-05-19T02:43:00.223Z,983.74
2019-05-19T02:44:00.261Z,983.70
2019-05-19T02:45:00.304Z,983.77
2019-05-19T02:46:00.345Z,983.74
2019-05-19T02:47:00.384Z,983.71
2019-05-19T02:48:00.427Z,983.74
2019-05-19T02:49:00.465Z,983.72
2019-05-19T02:50:00.512Z,983.71
2019-05-19T02:51:00.548Z,983.76
2019-05-19T02:52:00.595Z,983.76
2019-05-19T02:53:00.630Z,983.78
2019-05-19T02:54:00.664Z,983.79
2019-05-19T02:55:00.723Z,983.79
2019-05-19T02:56:00.746Z,983.80
2019-05-19T02:57:00.787Z,983.80
2019-05-19T02:58:00.829Z,983.81
2019-05-19T02:59:00.868Z,983.83
2019-05-19T03:00:00.908Z,983.79
2019-05-19T03:01:00.948Z,983.84
2019-05-19T03:02:01.049Z,983.82
2019-05-19T03:03:01.030Z,983.82
2019-05-19T03:04:01.069Z,983.82
2019-05-19T03:05:01.117Z,983.82
2019-05-19T03:06:01.149Z,983.87
2019-05-19T03:07:01.207Z,983.85
2019-05-19T03:08:01.238Z,983.82
2019-05-19T03:09:01.275Z,983.86
2019-05-19T03:10:01.319Z,983.84
2019-05-19T03:11:01.353Z,983.86
2019-05-19T03:12:01.397Z,983.90
2019-05-19T03:13:01.431Z,983.88
2019-05-19T03:14:01.475Z,983.89
2019-05-19T03:15:01.513Z,983.89
2019-05-19T03:16:01.553Z,983.88
2019-05-19T03:17:01.594Z,983.89
2019-05-19T03:18:01.633Z,983.90
2019-05-19T03:19:01.679Z,983.87
2019-05-19T03:20:01.714Z,983.89
2019-05-19T03:21:10.888Z,983.89
2019-05-19T03:22:01.800Z,983.87
2019-05-19T03:23:01.834Z,983.90
2019-05-19T03:24:01.887Z,983.88
2019-05-19T03:25:01.953Z,983.91
2019-05-19T03:26:01.973Z,983.96
2019-05-19T03:27:02.017Z,983.92
2019-05-19T03:28:02.034Z,983.94
2019-05-19T03:29:02.074Z,983.93
2019-05-19T03:30:02.120Z,983.92
2019-05-19T03:31:02.181Z,983.90
2019-05-19T03:32:02.205Z,983.95
2019-05-19T03:33:02.286Z,983.94
2019-05-19T03:34:02.323Z,983.93
2019-05-19T03:35:02.369Z,983.93
2019-05-19T03:36:02.358Z,983.87
2019-05-19T03:37:02.396Z,983.86
2019-05-19T03:38:02.448Z,983.87
2019-05-19T03:39:02.491Z,983.86
2019-05-19T03:40:02.532Z,983.87
2019-05-19T03:41:02.556Z,983.85
2019-05-19T03:42:02.597Z,983.87
2019-05-19T03:43:02.638Z,983.85
2019-05-19T03:44:02.677Z,983.88
2019-05-19T03:45:02.729Z,983.86
2019-05-19T03:46:02.759Z,983.94
2019-05-19T03:47:02.802Z,983.91
2019-05-19T03:48:02.878Z,983.88
2019-05-19T03:49:02.881Z,983.92
2019-05-19T03:50:02.922Z,983.92
2019-05-19T03:51:02.963Z,983.89
2019-05-19T03:52:02.999Z,983.90
2019-05-19T03:53:03.052Z,983.91
2019-05-19T03:54:03.094Z,983.91
2019-05-19T03:55:03.133Z,983.92
2019-05-19T03:56:03.327Z,983.91
2019-05-19T03:57:03.205Z,983.88
2019-05-19T03:58:03.250Z,983.92
2019-05-19T03:59:03.289Z,983.88
2019-05-19T04:00:03.353Z,983.91
2019-05-19T04:01:03.412Z,983.88
2019-05-19T04:02:03.404Z,983.91
2019-05-19T04:03:03.448Z,983.90
2019-05-19T04:04:03.484Z,983.93
2019-05-19T04:05:03.525Z,983.93
2019-05-19T04:06:03.565Z,983.94
2019-05-19T04:07:03.606Z,983.91
2019-05-19T04:08:03.645Z,983.92
2019-05-19T04:09:03.690Z,983.92
2019-05-19T04:10:03.726Z,983.93
2019-05-19T04:11:03.783Z,983.96
2019-05-19T04:12:03.822Z,983.97
2019-05-19T04:13:03.847Z,983.98
2019-05-19T04:14:03.894Z,983.95
2019-05-19T04:15:03.929Z,984.01
2019-05-19T04:16:03.979Z,984.00
2019-05-19T04:17:04.028Z,984.05
2019-05-19T04:18:04.049Z,984.05
2019-05-19T04:19:04.096Z,984.05
2019-05-19T04:20:04.135Z,984.07
2019-05-19T04:21:04.175Z,984.04
2019-05-19T04:22:04.212Z,984.09
2019-05-19T04:23:04.253Z,984.11
2019-05-19T04:24:04.292Z,984.12
2019-05-19T04:25:04.334Z,984.11
2019-05-19T04:26:04.379Z,984.13
2019-05-19T04:27:04.416Z,984.10
2019-05-19T04:28:04.460Z,984.13
2019-05-19T04:29:04.506Z,984.14
2019-05-19T04:30:04.548Z,984.11
2019-05-19T04:31:04.579Z,984.14
2019-05-19T04:32:04.626Z,984.14
2019-05-19T04:33:04.661Z,984.13
2019-05-19T04:34:04.701Z,984.12
2019-05-19T04:35:04.742Z,984.14
2019-05-19T04:36:04.785Z,984.10
2019-05-19T04:37:04.836Z,984.13
2019-05-19T04:38:04.867Z,984.11
2019-05-19T04:39:04.907Z,984.15
2019-05-19T04:40:04.943Z,984.17
2019-05-19T04:41:04.999Z,984.17
2019-05-19T04:42:05.028Z,984.17
2019-05-19T04:43:05.067Z,984.18
2019-05-19T04:44:05.129Z,984.13
2019-05-19T04:45:05.147Z,984.11
2019-05-19T04:46:05.192Z,984.14
2019-05-19T04:47:05.230Z,984.14
2019-05-19T04:48:09.223Z,984.10
2019-05-19T04:49:05.311Z,984.15
2019-05-19T04:50:05.366Z,984.17
2019-05-19T04:51:05.401Z,984.13
2019-05-19T04:52:07.324Z,984.14
2019-05-19T04:53:05.479Z,984.17
2019-05-19T04:54:05.521Z,984.15
2019-05-19T04:55:05.560Z,984.16
2019-05-19T04:56:05.603Z,984.15
2019-05-19T04:57:05.642Z,984.13
2019-05-19T04:58:05.686Z,984.13
2019-05-19T04:59:05.726Z,984.10
2019-05-19T05:00:05.766Z,984.13
2019-05-19T05:01:05.815Z,984.12
2019-05-19T05:02:05.852Z,984.13
2019-05-19T05:03:05.895Z,984.16
2019-05-19T05:04:05.932Z,984.14
2019-05-19T05:05:05.976Z,984.16
2019-05-19T05:06:06.018Z,984.14
2019-05-19T05:07:06.058Z,984.13
2019-05-19T05:08:06.103Z,984.16
2019-05-19T05:09:06.144Z,984.18
2019-05-19T05:10:06.183Z,984.16
2019-05-19T05:11:06.223Z,984.18
2019-05-19T05:12:06.264Z,984.17
2019-05-19T05:13:06.305Z,984.17
2019-05-19T05:14:06.355Z,984.19
2019-05-19T05:15:06.390Z,984.21
2019-05-19T05:16:06.432Z,984.25
2019-05-19T05:17:06.531Z,984.21
2019-05-19T05:18:06.516Z,984.20
2019-05-19T05:19:06.559Z,984.24
2019-05-19T05:20:06.599Z,984.22
2019-05-19T05:21:06.642Z,984.29
2019-05-19T05:22:19.933Z,984.30
2019-05-19T05:23:06.727Z,984.28
2019-05-19T05:24:06.768Z,984.25
2019-05-19T05:25:06.809Z,984.22
2019-05-19T05:26:06.859Z,984.26
2019-05-19T05:27:06.898Z,984.26
2019-05-19T05:28:06.936Z,984.25
2019-05-19T05:29:06.988Z,984.26
2019-05-19T05:30:07.023Z,984.23
2019-05-19T05:31:07.064Z,984.24
2019-05-19T05:32:07.116Z,984.23
2019-05-19T05:33:07.155Z,984.25
2019-05-19T05:34:07.193Z,984.24
2019-05-19T05:35:07.234Z,984.23
2019-05-19T05:36:07.282Z,984.24
2019-05-19T05:37:07.323Z,984.23
2019-05-19T05:38:07.363Z,984.23
2019-05-19T05:39:07.407Z,984.23
2019-05-19T05:40:07.449Z,984.24
2019-05-19T05:41:07.493Z,984.18
2019-05-19T05:42:07.532Z,984.20
2019-05-19T05:43:07.575Z,984.14
2019-05-19T05:44:07.617Z,984.16
2019-05-19T05:45:07.660Z,984.15
2019-05-19T05:46:07.715Z,984.12
2019-05-19T05:47:07.753Z,984.07
2019-05-19T05:48:07.787Z,984.07
2019-05-19T05:49:07.830Z,984.10
2019-05-19T05:50:07.876Z,984.10
2019-05-19T05:51:07.922Z,984.10
2019-05-19T05:52:07.964Z,984.09
2019-05-19T05:53:08.010Z,984.06
2019-05-19T05:54:08.048Z,984.08
2019-05-19T05:55:08.099Z,984.08
2019-05-19T05:56:08.135Z,984.04
2019-05-19T05:57:08.190Z,984.07
2019-05-19T05:58:08.221Z,984.06
2019-05-19T05:59:08.264Z,984.02
2019-05-19T06:00:08.311Z,984.02
2019-05-19T06:01:08.352Z,983.98
2019-05-19T06:02:08.403Z,984.02
2019-05-19T06:03:08.438Z,983.99
2019-05-19T06:04:08.479Z,983.96
2019-05-19T06:05:08.530Z,983.95
2019-05-19T06:06:08.567Z,983.93
2019-05-19T06:07:08.610Z,983.95
2019-05-19T06:08:08.654Z,983.98
2019-05-19T06:09:08.696Z,983.97
2019-05-19T06:10:08.742Z,983.98
2019-05-19T06:11:08.785Z,984.00
2019-05-19T06:12:08.828Z,983.99
2019-05-19T06:13:08.871Z,983.96
2019-05-19T06:14:08.916Z,983.98
2019-05-19T06:15:08.961Z,983.95
2019-05-19T06:16:09.002Z,983.97
2019-05-19T06:17:09.047Z,983.92
2019-05-19T06:18:09.093Z,983.99
2019-05-19T06:19:09.142Z,984.01
2019-05-19T06:20:09.340Z,983.97
2019-05-19T06:21:09.220Z,984.00
2019-05-19T06:22:09.266Z,984.00
2019-05-19T06:23:09.310Z,984.00
2019-05-19T06:24:09.351Z,983.98
2019-05-19T06:25:09.427Z,984.01
2019-05-19T06:26:09.441Z,983.98
2019-05-19T06:27:09.485Z,983.96
2019-05-19T06:28:09.533Z,983.98
2019-05-19T06:29:09.572Z,983.97
2019-05-19T06:30:09.633Z,983.95
2019-05-19T06:31:09.660Z,983.93
2019-05-19T06:32:09.705Z,983.93
2019-05-19T06:33:09.744Z,983.91
2019-05-19T06:34:09.797Z,983.91
2019-05-19T06:35:09.832Z,983.88
2019-05-19T06:36:09.876Z,983.89
2019-05-19T06:37:09.919Z,983.88
2019-05-19T06:38:09.991Z,983.85
2019-05-19T06:39:10.012Z,983.84
2019-05-19T06:40:10.053Z,983.88
2019-05-19T06:41:10.112Z,983.82
2019-05-19T06:42:10.140Z,983.83
2019-05-19T06:43:10.186Z,983.84
2019-05-19T06:44:10.228Z,983.85
2019-05-19T06:45:10.276Z,983.85
2019-05-19T06:46:10.323Z,983.81
2019-05-19T06:47:10.363Z,983.80
2019-05-19T06:48:10.405Z,983.79
2019-05-19T06:49:10.456Z,983.78
2019-05-19T06:50:10.500Z,983.83
2019-05-19T06:51:10.551Z,983.78
2019-05-19T06:52:10.580Z,983.75
2019-05-19T06:53:14.181Z,983.74
2019-05-19T06:54:10.668Z,983.73
2019-05-19T06:55:10.716Z,983.74
2019-05-19T06:56:10.765Z,983.71
2019-05-19T06:57:10.802Z,983.73
2019-05-19T06:58:10.845Z,983.77
2019-05-19T06:59:10.889Z,983.73
2019-05-19T07:00:10.934Z,983.75
2019-05-19T07:01:10.979Z,983.75
2019-05-19T07:02:11.043Z,983.77
2019-05-19T07:03:11.070Z,983.75
2019-05-19T07:04:11.108Z,983.74
2019-05-19T07:05:11.153Z,983.72
2019-05-19T07:06:11.198Z,983.68
2019-05-19T07:07:11.273Z,983.66
2019-05-19T07:08:11.286Z,983.66
2019-05-19T07:09:11.339Z,983.65
2019-05-19T07:10:11.376Z,983.69
2019-05-19T07:11:11.422Z,983.63
2019-05-19T07:12:11.465Z,983.64
2019-05-19T07:13:11.510Z,983.68
2019-05-19T07:14:11.553Z,983.62
2019-05-19T07:15:11.608Z,983.63
2019-05-19T07:16:11.670Z,983.61
2019-05-19T07:17:11.684Z,983.61
2019-05-19T07:18:11.733Z,983.59
2019-05-19T07:19:11.775Z,983.62
2019-05-19T07:20:11.819Z,983.64
2019-05-19T07:21:11.864Z,983.59
2019-05-19T07:22:11.909Z,983.57
2019-05-19T07:23:11.952Z,983.56
2019-05-19T07:24:11.996Z,983.56
2019-05-19T07:25:12.052Z,983.54
2019-05-19T07:26:12.089Z,983.55
2019-05-19T07:27:12.139Z,983.53
2019-05-19T07:28:12.174Z,983.51
2019-05-19T07:29:12.230Z,983.50
2019-05-19T07:30:12.269Z,983.47
2019-05-19T07:31:12.314Z,983.50
2019-05-19T07:32:12.356Z,983.52
2019-05-19T07:33:12.399Z,983.54
2019-05-19T07:34:12.495Z,983.55
2019-05-19T07:35:12.489Z,983.51
2019-05-19T07:36:12.539Z,983.49
2019-05-19T07:37:12.590Z,983.50
2019-05-19T07:38:12.630Z,983.47
2019-05-19T07:39:12.680Z,983.48
2019-05-19T07:40:12.711Z,983.48
2019-05-19T07:41:12.760Z,983.49
2019-05-19T07:42:12.804Z,983.51
2019-05-19T07:43:12.848Z,983.47
2019-05-19T07:44:12.893Z,983.44
2019-05-19T07:45:12.936Z,983.43
2019-05-19T07:46:12.991Z,983.45
2019-05-19T07:47:13.028Z,983.48
2019-05-19T07:48:13.079Z,983.43
2019-05-19T07:49:13.117Z,983.46
2019-05-19T07:50:13.229Z,983.40
2019-05-19T07:51:13.210Z,983.39
2019-05-19T07:52:13.251Z,983.39
2019-05-19T07:53:13.340Z,983.35
2019-05-19T07:54:13.342Z,983.31
2019-05-19T07:55:13.396Z,983.36
2019-05-19T07:56:13.431Z,983.36
2019-05-19T07:57:13.476Z,983.38
2019-05-19T07:58:13.533Z,983.35
2019-05-19T07:59:13.567Z,983.36
2019-05-19T08:00:13.612Z,983.38
2019-05-19T08:01:13.657Z,983.42
2019-05-19T08:02:13.708Z,983.39
2019-05-19T08:03:13.749Z,983.37
2019-05-19T08:04:13.797Z,983.35
2019-05-19T08:05:13.841Z,983.36
2019-05-19T08:06:13.895Z,983.34
2019-05-19T08:07:13.933Z,983.30
2019-05-19T08:08:13.975Z,983.33
2019-05-19T08:09:14.034Z,983.32
2019-05-19T08:10:14.080Z,983.28
2019-05-19T08:11:14.119Z,983.32
2019-05-19T08:12:14.160Z,983.26
2019-05-19T08:13:14.213Z,983.26
2019-05-19T08:14:14.250Z,983.26
2019-05-19T08:15:14.308Z,983.23
2019-05-19T08:16:14.342Z,983.23
2019-05-19T08:17:14.392Z,983.22
2019-05-19T08:18:14.437Z,983.21
2019-05-19T08:19:14.485Z,983.24
2019-05-19T08:20:14.525Z,983.24
2019-05-19T08:21:14.572Z,983.19
2019-05-19T08:22:14.662Z,983.15
2019-05-19T08:23:14.664Z,983.15
2019-05-19T08:24:14.707Z,983.18
2019-05-19T08:25:14.817Z,983.16
2019-05-19T08:26:14.799Z,983.18
2019-05-19T08:27:14.846Z,983.15
2019-05-19T08:28:14.889Z,983.20
2019-05-19T08:29:14.936Z,983.19
2019-05-19T08:30:14.990Z,983.14
2019-05-19T08:31:15.036Z,983.15
2019-05-19T08:32:15.074Z,983.14
2019-05-19T08:33:15.121Z,983.13
2019-05-19T08:34:15.184Z,983.10
2019-05-19T08:35:15.215Z,983.11
2019-05-19T08:36:15.263Z,983.08
2019-05-19T08:37:15.305Z,983.07
2019-05-19T08:38:15.353Z,983.14
2019-05-19T08:39:15.403Z,983.13
2019-05-19T08:40:15.442Z,983.09
2019-05-19T08:41:15.493Z,983.07
2019-05-19T08:42:15.537Z,983.06
2019-05-19T08:43:15.583Z,983.11
2019-05-19T08:44:15.630Z,983.09
2019-05-19T08:45:15.675Z,983.07
2019-05-19T08:46:15.721Z,983.07
2019-05-19T08:47:15.771Z,983.05
2019-05-19T08:48:15.813Z,983.10
2019-05-19T08:49:15.863Z,983.07
2019-05-19T08:50:15.905Z,983.06
2019-05-19T08:51:15.956Z,983.05
2019-05-19T08:52:15.999Z,983.01
2019-05-19T08:53:16.045Z,983.07
2019-05-19T08:54:18.819Z,983.08
2019-05-19T08:55:16.149Z,983.06
2019-05-19T08:56:16.184Z,983.09
2019-05-19T08:57:16.232Z,983.08
2019-05-19T08:58:16.277Z,983.05
2019-05-19T08:59:16.325Z,983.04
2019-05-19T09:00:16.371Z,982.99
2019-05-19T09:01:16.417Z,983.03
2019-05-19T09:02:16.463Z,983.08
2019-05-19T09:03:16.513Z,983.08
2019-05-19T09:04:16.556Z,983.06
2019-05-19T09:05:16.605Z,983.07
2019-05-19T09:06:16.662Z,983.09
2019-05-19T09:07:16.707Z,983.02
2019-05-19T09:08:16.749Z,983.04
2019-05-19T09:09:16.791Z,983.00
2019-05-19T09:10:16.852Z,982.98
2019-05-19T09:11:16.892Z,983.00
2019-05-19T09:12:16.927Z,983.03
2019-05-19T09:13:16.974Z,982.99
2019-05-19T09:14:17.020Z,982.94
2019-05-19T09:15:17.072Z,982.97
2019-05-19T09:16:17.115Z,982.94
2019-05-19T09:17:17.164Z,982.94
2019-05-19T09:18:17.209Z,982.94
2019-05-19T09:19:17.261Z,982.98
2019-05-19T09:20:17.301Z,982.95
2019-05-19T09:21:17.350Z,982.93
2019-05-19T09:22:17.397Z,982.95
2019-05-19T09:23:17.473Z,982.97
2019-05-19T09:24:29.543Z,982.93
2019-05-19T09:25:17.535Z,982.95
2019-05-19T09:26:17.590Z,982.94
2019-05-19T09:27:17.630Z,982.93
2019-05-19T09:28:17.823Z,982.90
2019-05-19T09:29:17.730Z,982.95
2019-05-19T09:30:17.769Z,982.98
2019-05-19T09:31:17.814Z,982.95
2019-05-19T09:32:17.860Z,983.05
2019-05-19T09:33:17.915Z,982.96
2019-05-19T09:34:17.956Z,982.93
2019-05-19T09:35:18.007Z,982.96
2019-05-19T09:36:18.054Z,982.95
2019-05-19T09:37:18.097Z,982.94
2019-05-19T09:38:18.149Z,982.93
2019-05-19T09:39:18.189Z,982.92
2019-05-19T09:40:18.235Z,982.96
2019-05-19T09:41:18.297Z,982.96
2019-05-19T09:42:18.327Z,982.94
2019-05-19T09:43:18.373Z,982.90
2019-05-19T09:44:18.438Z,982.96
2019-05-19T09:45:18.470Z,982.93
2019-05-19T09:46:18.520Z,982.98
2019-05-19T09:47:18.572Z,982.97
2019-05-19T09:48:18.611Z,982.94
2019-05-19T09:49:18.657Z,982.93
2019-05-19T09:50:18.708Z,982.99
2019-05-19T09:51:18.759Z,982.95
2019-05-19T09:52:18.800Z,982.96
2019-05-19T09:53:18.872Z,982.97
2019-05-19T09:54:18.898Z,982.95
2019-05-19T09:55:18.947Z,982.97
2019-05-19T09:56:18.983Z,982.92
2019-05-19T09:57:19.031Z,982.93
2019-05-19T09:58:20.191Z,982.92
2019-05-19T09:59:19.162Z,982.92
2019-05-19T10:00:19.177Z,982.88
2019-05-19T10:01:19.226Z,982.88
2019-05-19T10:02:19.268Z,982.92
2019-05-19T10:03:19.831Z,982.86
2019-05-19T10:04:19.359Z,982.91
2019-05-19T10:05:19.410Z,982.90
2019-05-19T10:06:19.459Z,982.94
2019-05-19T10:07:19.500Z,982.99
2019-05-19T10:08:19.555Z,983.00
2019-05-19T10:09:19.594Z,982.97
2019-05-19T10:10:19.645Z,982.99
2019-05-19T10:11:19.691Z,982.99
2019-05-19T10:12:19.735Z,983.01
2019-05-19T10:13:19.782Z,982.96
2019-05-19T10:14:19.835Z,982.95
2019-05-19T10:15:19.878Z,982.91
2019-05-19T10:16:19.932Z,982.90
2019-05-19T10:17:19.970Z,982.96
2019-05-19T10:18:20.019Z,982.89
2019-05-19T10:19:20.066Z,982.92
2019-05-19T10:20:20.113Z,982.87
2019-05-19T10:21:20.161Z,982.88
2019-05-19T10:22:20.210Z,982.85
2019-05-19T10:23:20.254Z,982.88
2019-05-19T10:24:20.311Z,982.84
2019-05-19T10:25:22.507Z,982.84
2019-05-19T10:26:20.396Z,982.90
2019-05-19T10:27:21.770Z,982.84
2019-05-19T10:28:20.499Z,982.82
2019-05-19T10:29:20.540Z,982.83
2019-05-19T10:30:20.587Z,982.81
2019-05-19T10:31:20.642Z,982.83
2019-05-19T10:32:20.680Z,982.75
2019-05-19T10:33:20.738Z,982.73
2019-05-19T10:34:20.780Z,982.70
2019-05-19T10:35:20.821Z,982.68
2019-05-19T10:36:20.877Z,982.68
2019-05-19T10:37:20.925Z,982.72
2019-05-19T10:38:20.972Z,982.73
2019-05-19T10:39:21.013Z,982.68
2019-05-19T10:40:21.057Z,982.66
2019-05-19T10:41:21.107Z,982.70
2019-05-19T10:42:21.153Z,982.71
2019-05-19T10:43:21.202Z,982.73
2019-05-19T10:44:21.247Z,982.74
2019-05-19T10:45:21.295Z,982.75
2019-05-19T10:46:21.351Z,982.73
2019-05-19T10:47:21.396Z,982.73
2019-05-19T10:48:21.437Z,982.75
2019-05-19T10:49:21.489Z,982.73
2019-05-19T10:50:21.534Z,982.74
2019-05-19T10:51:21.579Z,982.73
2019-05-19T10:52:21.626Z,982.73
2019-05-19T10:53:21.680Z,982.72
2019-05-19T10:54:21.726Z,982.72
2019-05-19T10:55:34.082Z,982.68
2019-05-19T10:56:21.815Z,982.72
2019-05-19T10:57:21.862Z,982.70
2019-05-19T10:58:21.912Z,982.67
2019-05-19T10:59:21.955Z,982.66
2019-05-19T11:00:22.004Z,982.60
2019-05-19T11:01:22.056Z,982.61
2019-05-19T11:02:22.096Z,982.62
2019-05-19T11:03:22.153Z,982.60
2019-05-19T11:04:22.197Z,982.61
2019-05-19T11:05:22.248Z,982.59
2019-05-19T11:06:22.304Z,982.57
2019-05-19T11:07:22.338Z,982.57
2019-05-19T11:08:22.385Z,982.57
2019-05-19T11:09:22.437Z,982.56
2019-05-19T11:10:22.486Z,982.54
2019-05-19T11:11:22.534Z,982.53
2019-05-19T11:12:22.569Z,982.56
2019-05-19T11:13:22.626Z,982.58
2019-05-19T11:14:22.665Z,982.57
2019-05-19T11:15:22.723Z,982.58
2019-05-19T11:16:22.760Z,982.56
2019-05-19T11:17:22.819Z,982.52
2019-05-19T11:18:22.857Z,982.50
2019-05-19T11:19:22.910Z,982.52
2019-05-19T11:20:22.959Z,982.54
2019-05-19T11:21:22.998Z,982.54
2019-05-19T11:22:23.045Z,982.54
2019-05-19T11:23:23.093Z,982.54
2019-05-19T11:24:23.140Z,982.54
2019-05-19T11:25:33.588Z,982.49
2019-05-19T11:26:23.237Z,982.53
2019-05-19T11:27:23.317Z,982.51
2019-05-19T11:28:23.350Z,982.49
2019-05-19T11:29:23.379Z,982.46
2019-05-19T11:30:23.427Z,982.47
2019-05-19T11:31:23.475Z,982.45
2019-05-19T11:32:23.523Z,982.46
2019-05-19T11:33:23.578Z,982.47
2019-05-19T11:34:23.618Z,982.45
2019-05-19T11:35:23.666Z,982.39
2019-05-19T11:36:23.712Z,982.38
2019-05-19T11:37:23.771Z,982.42
2019-05-19T11:38:23.811Z,982.41
2019-05-19T11:39:23.856Z,982.38
2019-05-19T11:40:23.926Z,982.40
2019-05-19T11:41:23.952Z,982.39
2019-05-19T11:42:24.012Z,982.43
2019-05-19T11:43:24.055Z,982.43
2019-05-19T11:44:24.096Z,982.47
2019-05-19T11:45:24.144Z,982.46
2019-05-19T11:46:24.193Z,982.51
2019-05-19T11:47:24.241Z,982.45
2019-05-19T11:48:24.286Z,982.44
2019-05-19T11:49:24.338Z,982.42
2019-05-19T11:50:24.383Z,982.41
2019-05-19T11:51:24.432Z,982.35
2019-05-19T11:52:24.481Z,982.33
2019-05-19T11:53:24.530Z,982.32
2019-05-19T11:54:24.576Z,982.31
2019-05-19T11:55:24.629Z,982.32
2019-05-19T11:56:24.672Z,982.34
2019-05-19T11:57:24.719Z,982.39
2019-05-19T11:58:24.803Z,982.46
2019-05-19T11:59:24.820Z,982.45
2019-05-19T12:00:24.866Z,982.45
2019-05-19T12:01:24.914Z,982.44
2019-05-19T12:02:24.969Z,982.42
2019-05-19T12:03:25.015Z,982.42
2019-05-19T12:04:25.066Z,982.48
2019-05-19T12:05:25.124Z,982.47
2019-05-19T12:06:38.120Z,982.50
2019-05-19T12:07:25.204Z,982.54
2019-05-19T12:08:25.266Z,982.55
2019-05-19T12:09:25.304Z,982.59
2019-05-19T12:10:25.363Z,982.61
2019-05-19T12:11:25.401Z,982.61
2019-05-19T12:12:25.457Z,982.59
2019-05-19T12:13:25.502Z,982.61
2019-05-19T12:14:25.545Z,982.62
2019-05-19T12:15:25.591Z,982.66
2019-05-19T12:16:25.644Z,982.64
2019-05-19T12:17:25.689Z,982.65
2019-05-19T12:18:25.744Z,982.61
2019-05-19T12:19:25.794Z,982.67
2019-05-19T12:20:25.834Z,982.66
2019-05-19T12:21:25.882Z,982.69
2019-05-19T12:22:25.940Z,982.65
2019-05-19T12:23:25.986Z,982.66
2019-05-19T12:24:26.033Z,982.65
2019-05-19T12:25:26.079Z,982.68
2019-05-19T12:26:26.133Z,982.69
2019-05-19T12:27:26.183Z,982.67
2019-05-19T12:28:26.237Z,982.66
2019-05-19T12:29:26.276Z,982.67